Time;durP1;ratioP1;P1;durP2;ratioP2;P2;SDS_P1;SDS_P2;PMS_P1;PMS_P2;Temp;Humidity;BMP_temperature;BMP_pressure;BME280_temperature;BME280_humidity;BME280_pressure;Samples;Min_cycle;Max_cycle;Signal;HPM_P1;HPM_P2
2022/08/08 00:02:10;;;;;;;;;;;;;;;25.99;53.46;154194.61;1731352;83;20191;-73
2022/08/08 00:04:39;;;;;;;;;;;;;;;26.12;53.69;154226.05;1730157;83;20179;-73
2022/08/08 00:07:12;;;;;;;;;;;;;;;26.16;53.31;154236.52;1691187;83;20212;-72
2022/08/08 00:09:44;;;;;;;;;;;;;;;26.14;52.58;154232.63;1714000;82;20180;-72
2022/08/08 00:12:12;;;;;;;;;;;;;;;26.12;52.59;154226.05;1697503;83;20402;-73
2022/08/08 00:14:46;;;;;;;;;;;;;;;26.09;52.26;154218.19;1714354;83;20173;-71
2022/08/08 00:17:16;;;;;;;;;;;;;;;26.03;53.06;154205.09;1714198;82;20387;-72
2022/08/08 00:19:55;;;;;;;;;;;;;;;25.98;53.37;154192.00;1741362;82;20264;-73
2022/08/08 00:22:27;;;;;;;;;;;;;;;25.89;53.39;154169.70;1744081;81;21258;-73
2022/08/08 00:24:57;;;;;;;;;;;;;;;25.88;53.20;154165.75;1744100;81;20451;-72
2022/08/08 00:27:24;;;;;;;;;;;;;;;25.84;53.17;154156.56;1744501;81;20126;-73
2022/08/08 00:29:57;;;;;;;;;;;;;;;25.78;53.33;154139.56;1743893;82;20680;-72
2022/08/08 00:32:35;;;;;;;;;;;;;;;25.76;53.61;154134.33;1744068;82;20214;-74
2022/08/08 00:35:23;;;;;;;;;;;;;;;25.73;53.14;154127.75;1744182;82;21246;-74
2022/08/08 00:38:08;;;;;;;;;;;;;;;25.69;53.35;154118.56;1743629;81;20186;-74
2022/08/08 00:40:55;;;;;;;;;;;;;;;25.71;54.55;154123.81;1743964;82;20506;-72
2022/08/08 00:43:44;;;;;;;;;;;;;;;25.72;54.92;154126.42;1744077;81;20150;-73
2022/08/08 00:46:30;;;;;;;;;;;;;;;25.74;54.55;154131.66;1744140;81;20135;-73
2022/08/08 00:49:06;;;;;;;;;;;;;;;25.69;54.91;154118.56;1743964;81;21233;-72
2022/08/08 00:51:42;;;;;;;;;;;;;;;25.61;54.11;154097.63;1743833;81;20182;-73
2022/08/08 00:54:25;;;;;;;;;;;;;;;25.56;53.09;154084.53;1743132;82;20150;-72
2022/08/08 00:57:23;;;;;;;;;;;;;;;25.55;53.55;154083.19;1742967;81;20201;-72
2022/08/08 01:00:22;;;;;;;;;;;;;;;25.53;53.17;154077.95;1743693;82;20186;-73
2022/08/08 01:03:18;;;;;;;;;;;;;;;25.50;54.31;154068.77;1739167;81;21202;-72
2022/08/08 01:06:23;;;;;;;;;;;;;;;25.45;55.07;154058.25;1724155;82;20232;-72
2022/08/08 01:09:21;;;;;;;;;;;;;;;25.43;55.14;154053.00;1712502;83;20223;-72
2022/08/08 01:12:09;;;;;;;;;;;;;;;25.41;55.90;154047.77;1715574;83;20209;-72
2022/08/08 01:15:13;;;;;;;;;;;;;;;25.30;56.43;154020.25;1718428;83;20199;-73
2022/08/08 01:18:05;;;;;;;;;;;;;;;25.27;56.57;154011.06;1718728;83;21235;-74
2022/08/08 01:20:54;;;;;;;;;;;;;;;25.25;56.91;154005.83;1718785;83;20445;-72
2022/08/08 01:23:44;;;;;;;;;;;;;;;25.20;56.90;153992.75;1719081;83;20157;-71
2022/08/08 01:26:32;;;;;;;;;;;;;;;25.10;57.26;153969.17;1718795;82;20165;-59
2022/08/08 01:29:14;;;;;;;;;;;;;;;25.01;57.21;153945.56;1718551;83;20225;-60
2022/08/08 01:32:02;;;;;;;;;;;;;;;24.92;57.99;153923.30;1717601;82;21262;-59
2022/08/08 01:34:48;;;;;;;;;;;;;;;24.81;58.79;153895.78;1718709;83;20163;-60
2022/08/08 01:37:36;;;;;;;;;;;;;;;24.71;59.28;153869.56;1718630;83;20181;-60
2022/08/08 01:40:42;;;;;;;;;;;;;;;24.63;60.04;153848.58;1718779;83;20168;-60
2022/08/08 01:43:34;;;;;;;;;;;;;;;24.56;60.55;153832.87;1717893;82;20176;-60
2022/08/08 01:46:10;;;;;;;;;;;;;;;24.55;60.61;153830.25;1718456;83;20696;-71
2022/08/08 01:49:02;;;;;;;;;;;;;;;24.51;60.16;153819.78;1718064;83;20555;-71
2022/08/08 01:51:55;;;;;;;;;;;;;;;24.51;60.22;153819.78;1718592;83;20215;-71
2022/08/08 01:54:35;;;;;;;;;;;;;;;24.49;60.03;153814.56;1718631;82;20184;-72
2022/08/08 01:57:21;;;;;;;;;;;;;;;24.42;60.22;153797.53;1718902;83;20214;-72
2022/08/08 02:00:00;;;;;;;;;;;;;;;24.37;61.12;153783.11;1718875;83;21281;-71
2022/08/08 02:02:56;;;;;;;;;;;;;;;24.32;62.04;153772.64;1718681;83;20448;-72
2022/08/08 02:05:32;;;;;;;;;;;;;;;24.24;62.74;153751.70;1719203;82;20122;-73
2022/08/08 02:08:15;;;;;;;;;;;;;;;24.12;63.53;153720.25;1718862;83;20502;-72
2022/08/08 02:10:46;;;;;;;;;;;;;;;24.03;64.04;153698.00;1721985;82;20118;-72
2022/08/08 02:13:20;;;;;;;;;;;;;;;23.99;64.36;153688.81;1748960;82;23137;-71
2022/08/08 02:16:03;;;;;;;;;;;;;;;23.98;64.42;153686.16;1748971;81;20447;-72
2022/08/08 02:18:45;;;;;;;;;;;;;;;23.99;64.45;153688.81;1745552;82;20211;-74
2022/08/08 02:24:20;;;;;;;;;;;;;;;24.03;64.43;153698.00;1745545;82;20198;-73
2022/08/08 02:26:52;;;;;;;;;;;;;;;23.98;64.52;153686.16;1740756;82;21784;-72
2022/08/08 02:29:50;;;;;;;;;;;;;;;23.93;64.55;153673.08;1741628;82;20182;-72
2022/08/08 02:32:27;;;;;;;;;;;;;;;23.94;64.57;153675.69;1741320;82;20377;-73
2022/08/08 02:35:09;;;;;;;;;;;;;;;23.91;64.67;153666.56;1720292;82;20171;-73
2022/08/08 02:38:15;;;;;;;;;;;;;;;23.84;64.80;153649.53;1741161;82;20629;-74
2022/08/08 02:41:00;;;;;;;;;;;;;;;23.81;65.13;153641.69;1741053;82;21198;-73
2022/08/08 02:43:43;;;;;;;;;;;;;;;23.71;65.39;153618.09;1741337;82;20154;-74
2022/08/08 02:46:40;;;;;;;;;;;;;;;23.61;65.88;153591.94;1740424;82;20466;-59
2022/08/08 02:49:28;;;;;;;;;;;;;;;23.57;66.09;153582.75;1741168;82;20458;-59
2022/08/08 02:52:07;;;;;;;;;;;;;;;23.62;66.06;153594.55;1740610;82;20194;-59
2022/08/08 02:54:44;;;;;;;;;;;;;;;23.64;66.14;153598.44;1740526;82;21157;-58
2022/08/08 02:57:42;;;;;;;;;;;;;;;23.63;66.30;153597.16;1740601;82;20543;-58
2022/08/08 03:00:38;;;;;;;;;;;;;;;23.67;66.26;153607.62;1740653;82;20143;-59
2022/08/08 03:03:42;;;;;;;;;;;;;;;23.69;66.35;153612.86;1740917;82;20206;-59
2022/08/08 03:06:13;;;;;;;;;;;;;;;23.65;66.50;153602.39;1725124;82;20183;-59
2022/08/08 03:09:03;;;;;;;;;;;;;;;23.59;66.87;153586.70;1718773;83;21144;-59
2022/08/08 03:11:39;;;;;;;;;;;;;;;23.56;67.16;153578.86;1727087;82;20449;-58
2022/08/08 03:14:43;;;;;;;;;;;;;;;23.60;67.28;153589.31;1724986;83;20204;-59
2022/08/08 03:17:13;;;;;;;;;;;;;;;23.61;67.48;153591.94;1726228;83;20801;-59
2022/08/08 03:20:14;;;;;;;;;;;;;;;23.63;67.64;153595.83;1749152;82;20229;-59
2022/08/08 03:22:51;;;;;;;;;;;;;;;23.59;67.72;153586.70;1751383;81;21248;-59
2022/08/08 03:25:20;;;;;;;;;;;;;;;23.59;67.91;153587.98;1751427;81;20206;-58
2022/08/08 03:28:10;;;;;;;;;;;;;;;23.63;67.89;153597.16;1751701;81;20194;-58
2022/08/08 03:30:37;;;;;;;;;;;;;;;23.73;67.89;153623.31;1751381;81;20178;-58
2022/08/08 03:33:19;;;;;;;;;;;;;;;23.85;67.73;153652.14;1751539;81;20218;-58
2022/08/08 03:35:48;;;;;;;;;;;;;;;23.88;67.74;153661.33;1751699;81;21974;-58
2022/08/08 03:38:16;;;;;;;;;;;;;;;23.93;67.69;153671.78;1751499;82;20297;-58
2022/08/08 03:40:53;;;;;;;;;;;;;;;23.93;67.85;153673.08;1751753;82;20137;-59
2022/08/08 03:43:21;;;;;;;;;;;;;;;23.99;67.88;153687.48;1751420;81;20455;-58
2022/08/08 03:45:52;;;;;;;;;;;;;;;24.02;67.73;153695.38;1751739;81;20206;-59
2022/08/08 03:48:19;;;;;;;;;;;;;;;24.02;67.93;153696.72;1751572;82;21193;-59
2022/08/08 03:50:47;;;;;;;;;;;;;;;24.06;68.02;153704.56;1751398;82;20170;-59
2022/08/08 03:53:20;;;;;;;;;;;;;;;24.06;67.58;153704.56;1751339;81;20147;-58
2022/08/08 03:55:48;;;;;;;;;;;;;;;24.05;67.38;153701.95;1750788;82;20133;-58
2022/08/08 03:58:19;;;;;;;;;;;;;;;24.08;67.02;153709.80;1751619;81;20107;-58
2022/08/08 04:00:53;;;;;;;;;;;;;;;24.06;66.73;153704.56;1751839;81;21138;-59
2022/08/08 04:03:20;;;;;;;;;;;;;;;24.04;66.71;153700.61;1745323;81;20155;-59
2022/08/08 04:05:47;;;;;;;;;;;;;;;24.09;66.93;153712.41;1727524;82;20170;-59
2022/08/08 04:08:18;;;;;;;;;;;;;;;24.08;67.03;153709.80;1716330;83;20384;-58
2022/08/08 04:10:47;;;;;;;;;;;;;;;24.12;67.11;153720.25;1716386;83;20198;-57
2022/08/08 04:13:16;;;;;;;;;;;;;;;24.16;66.70;153732.06;1716476;83;20389;-58
2022/08/08 04:15:43;;;;;;;;;;;;;;;24.18;66.43;153735.95;1716496;83;20187;-58
2022/08/08 04:18:10;;;;;;;;;;;;;;;24.27;66.31;153758.22;1722479;82;20443;-58
2022/08/08 04:20:38;;;;;;;;;;;;;;;24.38;65.89;153787.06;1738716;82;20190;-59
2022/08/08 04:23:05;;;;;;;;;;;;;;;24.50;65.25;153817.17;1738605;82;20183;-59
2022/08/08 04:25:32;;;;;;;;;;;;;;;24.60;64.62;153843.34;1739093;82;21139;-59
2022/08/08 04:27:59;;;;;;;;;;;;;;;24.72;64.25;153872.19;1738674;82;20160;-59
2022/08/08 04:30:26;;;;;;;;;;;;;;;24.84;63.49;153903.64;1738800;82;20205;-59
2022/08/08 04:32:53;;;;;;;;;;;;;;;24.94;62.95;153927.25;1738563;82;20235;-59
2022/08/08 04:35:21;;;;;;;;;;;;;;;24.99;62.56;153940.33;1738839;82;20417;-60
2022/08/08 04:37:48;;;;;;;;;;;;;;;25.05;62.31;153956.03;1738998;82;21970;-59
2022/08/08 04:40:17;;;;;;;;;;;;;;;25.14;61.98;153979.66;1738777;82;20380;-60
2022/08/08 04:42:46;;;;;;;;;;;;;;;25.29;61.48;154017.64;1738750;82;20189;-57
2022/08/08 04:45:13;;;;;;;;;;;;;;;25.41;61.10;154047.77;1738542;82;20794;-58
2022/08/08 04:47:40;;;;;;;;;;;;;;;25.60;60.88;154095.00;1738720;82;20174;-58
2022/08/08 04:50:07;;;;;;;;;;;;;;;25.79;59.75;154143.47;1738159;82;21200;-59
2022/08/08 04:52:35;;;;;;;;;;;;;;;25.91;59.51;154173.61;1738594;82;20199;-59
2022/08/08 04:55:04;;;;;;;;;;;;;;;26.06;59.12;154210.33;1738679;82;20460;-58
2022/08/08 04:57:32;;;;;;;;;;;;;;;26.20;57.78;154245.77;1738622;82;20195;-59
2022/08/08 04:59:59;;;;;;;;;;;;;;;26.27;57.28;154265.44;1738641;81;20444;-59
2022/08/08 05:02:26;;;;;;;;;;;;;;;26.38;57.31;154292.97;1739150;82;21299;-58
2022/08/08 05:04:53;;;;;;;;;;;;;;;26.55;57.23;154334.94;1735760;82;20199;-59
2022/08/08 05:07:20;;;;;;;;;;;;;;;26.74;56.23;154384.72;1721962;83;20166;-59
2022/08/08 05:09:47;;;;;;;;;;;;;;;26.91;56.05;154426.75;1721798;83;20287;-59
2022/08/08 05:12:13;;;;;;;;;;;;;;;27.10;55.21;154475.30;1734582;82;20479;-59
2022/08/08 05:14:40;;;;;;;;;;;;;;;27.23;54.52;154506.75;1739161;82;21999;-59
2022/08/08 05:17:07;;;;;;;;;;;;;;;27.36;53.97;154540.88;1739123;82;20171;-59
2022/08/08 05:19:36;;;;;;;;;;;;;;;27.43;53.64;154557.94;1737220;82;20467;-59
2022/08/08 05:22:05;;;;;;;;;;;;;;;27.48;53.15;154569.70;1736906;82;20202;-59
2022/08/08 05:24:33;;;;;;;;;;;;;;;27.51;52.79;154578.95;1737353;82;20131;-58
2022/08/08 05:27:00;;;;;;;;;;;;;;;27.62;52.63;154606.50;1736781;82;21226;-58
2022/08/08 05:29:28;;;;;;;;;;;;;;;27.78;51.52;154645.88;1736933;82;20472;-58
2022/08/08 05:31:55;;;;;;;;;;;;;;;27.88;50.91;154672.09;1737022;82;20459;-59
2022/08/08 05:34:27;;;;;;;;;;;;;;;28.02;49.94;154708.84;1737054;82;20176;-59
2022/08/08 05:36:53;;;;;;;;;;;;;;;28.19;49.16;154749.56;1736640;82;20187;-59
2022/08/08 05:39:21;;;;;;;;;;;;;;;28.31;48.80;154781.09;1736853;82;21145;-59
2022/08/08 05:41:51;;;;;;;;;;;;;;;28.49;48.54;154827.00;1736959;82;20178;-59
2022/08/08 05:44:24;;;;;;;;;;;;;;;28.67;48.01;154871.66;1736701;82;20389;-59
2022/08/08 05:46:52;;;;;;;;;;;;;;;28.78;47.50;154900.50;1725069;82;20183;-59
2022/08/08 05:49:19;;;;;;;;;;;;;;;28.89;47.17;154928.13;1712443;83;20154;-59
2022/08/08 05:51:46;;;;;;;;;;;;;;;28.96;46.88;154945.19;1695235;83;21143;-59
2022/08/08 05:54:12;;;;;;;;;;;;;;;29.02;46.64;154962.28;1656552;86;21577;-59
2022/08/08 05:56:40;;;;;;;;;;;;;;;29.10;46.56;154980.64;1682412;83;20240;-59
2022/08/08 05:59:14;;;;;;;;;;;;;;;29.29;46.13;155030.53;1671594;83;20460;-60
2022/08/08 06:01:42;;;;;;;;;;;;;;;29.39;45.08;155055.50;1676832;83;20203;-59
2022/08/08 06:04:10;;;;;;;;;;;;;;;29.43;45.52;155066.03;1682294;83;21145;-59
2022/08/08 06:06:43;;;;;;;;;;;;;;;29.63;44.79;155115.95;1675971;84;20449;-71
2022/08/08 06:09:10;;;;;;;;;;;;;;;29.83;43.93;155165.86;1676832;84;20161;-70
2022/08/08 06:11:37;;;;;;;;;;;;;;;30.00;43.34;155209.19;1673892;84;20205;-70
2022/08/08 06:14:05;;;;;;;;;;;;;;;30.26;42.23;155276.25;1671527;84;20189;-59
2022/08/08 06:16:35;;;;;;;;;;;;;;;30.53;41.53;155344.56;1673763;83;21344;-67
2022/08/08 06:19:09;;;;;;;;;;;;;;;30.83;41.13;155420.81;1711197;82;20177;-70
2022/08/08 06:21:38;;;;;;;;;;;;;;;31.16;40.96;155503.61;1712399;82;20181;-70
2022/08/08 06:24:05;;;;;;;;;;;;;;;31.40;39.84;155565.47;1707878;82;20137;-60
2022/08/08 06:26:38;;;;;;;;;;;;;;;31.62;38.65;155619.39;1710792;81;20224;-60
2022/08/08 06:29:08;;;;;;;;;;;;;;;31.86;38.38;155681.20;1717608;81;21237;-60
2022/08/08 06:31:36;;;;;;;;;;;;;;;31.97;38.61;155710.16;1709847;82;20225;-61
2022/08/08 06:34:13;;;;;;;;;;;;;;;32.04;38.62;155725.92;1706534;82;20223;-70
2022/08/08 06:36:41;;;;;;;;;;;;;;;32.16;38.32;155757.45;1707588;82;21023;-61
2022/08/08 06:39:11;;;;;;;;;;;;;;;32.29;37.75;155791.66;1709922;82;20140;-60
2022/08/08 06:42:00;;;;;;;;;;;;;;;32.40;37.71;155818.03;1717243;82;21135;-61
2022/08/08 06:44:29;;;;;;;;;;;;;;;32.44;37.61;155828.55;1709614;82;20502;-70
2022/08/08 06:46:57;;;;;;;;;;;;;;;32.55;37.45;155857.45;1695397;82;20177;-61
2022/08/08 06:49:24;;;;;;;;;;;;;;;32.69;37.25;155891.67;1712650;82;20176;-61
2022/08/08 06:51:51;;;;;;;;;;;;;;;32.86;36.94;155935.08;1691773;82;20181;-71
2022/08/08 06:54:20;;;;;;;;;;;;;;;33.05;35.98;155983.83;1715455;82;21212;-70
2022/08/08 06:56:48;;;;;;;;;;;;;;;33.19;35.65;156018.00;1706945;82;20193;-71
2022/08/08 06:59:14;;;;;;;;;;;;;;;33.29;35.24;156044.34;1715553;82;20156;-71
2022/08/08 07:01:44;;;;;;;;;;;;;;;33.36;35.09;156062.75;1711293;82;20729;-71
2022/08/08 07:04:20;;;;;;;;;;;;;;;33.45;34.97;156085.17;1714656;81;20279;-71
2022/08/08 07:07:19;;;;;;;;;;;;;;;33.54;34.64;156108.84;1721893;81;21136;-71
2022/08/08 07:09:58;;;;;;;;;;;;;;;33.61;34.56;156125.95;1716678;82;20160;-61
2022/08/08 07:12:41;;;;;;;;;;;;;;;33.67;34.83;156141.73;1721229;81;20124;-71
2022/08/08 07:15:10;;;;;;;;;;;;;;;33.78;35.08;156169.38;1719260;81;20438;-72
2022/08/08 07:17:46;;;;;;;;;;;;;;;33.90;35.37;156199.64;1718547;81;20881;-72
2022/08/08 07:20:30;;;;;;;;;;;;;;;33.99;34.99;156223.41;1709153;81;21140;-71
2022/08/08 07:23:22;;;;;;;;;;;;;;;34.05;34.59;156236.56;1714839;81;20188;-72
2022/08/08 07:25:51;;;;;;;;;;;;;;;34.11;33.62;156252.34;1712089;83;20180;-61
2022/08/08 07:28:25;;;;;;;;;;;;;;;34.11;33.33;156252.34;1714251;81;20257;-61
2022/08/08 07:30:52;;;;;;;;;;;;;;;34.06;33.31;156239.19;1711874;81;20461;-61
2022/08/08 07:33:22;;;;;;;;;;;;;;;33.91;33.60;156202.28;1711779;81;21262;-72
2022/08/08 07:35:49;;;;;;;;;;;;;;;33.81;33.71;156175.97;1719116;81;20329;-71
2022/08/08 07:38:17;;;;;;;;;;;;;;;33.78;33.17;156168.08;1720313;81;20228;-71
2022/08/08 07:40:45;;;;;;;;;;;;;;;33.74;33.45;156158.86;1713815;81;20181;-70
2022/08/08 07:43:12;;;;;;;;;;;;;;;33.72;33.24;156153.59;1713415;81;20283;-71
2022/08/08 07:45:42;;;;;;;;;;;;;;;33.67;33.23;156140.44;1715773;81;21095;-72
2022/08/08 07:48:09;;;;;;;;;;;;;;;33.69;33.23;156147.00;1715606;81;20206;-72
2022/08/08 07:50:36;;;;;;;;;;;;;;;33.68;33.03;156144.37;1715114;81;20206;-72
2022/08/08 07:53:09;;;;;;;;;;;;;;;33.70;33.52;156149.62;1680874;82;20269;-73
2022/08/08 07:55:36;;;;;;;;;;;;;;;33.69;33.23;156147.00;1718169;81;20211;-71
2022/08/08 07:58:22;;;;;;;;;;;;;;;33.63;33.87;156131.22;1718490;81;21219;-71
2022/08/08 08:00:50;;;;;;;;;;;;;;;33.58;34.28;156118.06;1719954;81;20515;-72
2022/08/08 08:03:31;;;;;;;;;;;;;;;33.58;34.53;156119.36;1713618;81;20216;-71
2022/08/08 08:05:57;;;;;;;;;;;;;;;33.68;34.59;156144.37;1712489;82;20243;-72
2022/08/08 08:08:28;;;;;;;;;;;;;;;33.87;33.64;156191.75;1707104;82;20169;-73
2022/08/08 08:10:55;;;;;;;;;;;;;;;33.90;33.61;156199.64;1703311;82;21820;-72
2022/08/08 08:13:37;;;;;;;;;;;;;;;33.88;34.34;156194.38;1699119;82;20142;-61
2022/08/08 08:16:06;;;;;;;;;;;;;;;33.78;35.10;156168.08;1705067;82;20175;-61
2022/08/08 08:18:44;;;;;;;;;;;;;;;33.83;34.53;156181.23;1699247;82;37728;-61
2022/08/08 08:21:11;;;;;;;;;;;;;;;33.82;34.29;156179.94;1708134;82;20193;-61
2022/08/08 08:23:37;;;;;;;;;;;;;;;33.86;34.29;156189.13;1710747;82;21214;-61
2022/08/08 08:26:05;;;;;;;;;;;;;;;33.91;33.91;156200.98;1692681;82;20200;-61
2022/08/08 08:28:33;;;;;;;;;;;;;;;33.89;33.90;156195.72;1710851;83;20210;-61
2022/08/08 08:31:03;;;;;;;;;;;;;;;33.92;34.08;156204.91;1706006;82;21285;-62
2022/08/08 08:33:29;;;;;;;;;;;;;;;34.03;34.89;156232.59;1704582;82;20175;-61
2022/08/08 08:35:56;;;;;;;;;;;;;;;34.21;34.30;156278.69;1710286;82;22717;-60
2022/08/08 08:38:23;;;;;;;;;;;;;;;34.30;33.78;156301.08;1710077;82;20325;-60
2022/08/08 08:40:55;;;;;;;;;;;;;;;34.25;33.50;156289.22;1676385;83;20492;-60
2022/08/08 08:43:21;;;;;;;;;;;;;;;34.12;33.75;156254.97;1686742;83;20468;-60
2022/08/08 08:45:48;;;;;;;;;;;;;;;33.90;34.08;156199.64;1712817;82;20196;-60
2022/08/08 08:48:16;;;;;;;;;;;;;;;33.75;34.01;156161.48;1707803;82;21325;-60
2022/08/08 08:50:43;;;;;;;;;;;;;;;33.73;33.45;156154.94;1705079;82;20199;-60
2022/08/08 08:53:12;;;;;;;;;;;;;;;33.63;33.58;156131.22;1710018;82;20240;-59
2022/08/08 08:55:39;;;;;;;;;;;;;;;33.67;33.78;156141.73;1709433;82;20583;-60
2022/08/08 08:58:07;;;;;;;;;;;;;;;33.79;33.73;156170.72;1708404;82;20237;-60
2022/08/08 09:00:35;;;;;;;;;;;;;;;33.88;34.28;156193.09;1699158;82;21118;-60
2022/08/08 09:03:06;;;;;;;;;;;;;;;33.93;33.36;156207.53;1709728;82;20206;-60
2022/08/08 09:05:34;;;;;;;;;;;;;;;33.98;33.33;156220.78;1702070;82;20280;-62
2022/08/08 09:08:03;;;;;;;;;;;;;;;34.04;32.61;156233.94;1705191;82;20211;-58
2022/08/08 09:10:30;;;;;;;;;;;;;;;34.05;32.32;156236.56;1705626;82;20250;-62
2022/08/08 09:12:57;;;;;;;;;;;;;;;33.96;32.30;156215.52;1701456;82;21229;-59
2022/08/08 09:15:24;;;;;;;;;;;;;;;33.95;33.21;156211.50;1700258;82;20540;-60
2022/08/08 09:17:50;;;;;;;;;;;;;;;34.02;33.06;156229.97;1707043;82;20185;-61
2022/08/08 09:20:17;;;;;;;;;;;;;;;33.99;32.81;156223.41;1702623;82;20235;-60
2022/08/08 09:22:44;;;;;;;;;;;;;;;34.05;33.25;156237.91;1712228;82;20233;-62
2022/08/08 09:25:11;;;;;;;;;;;;;;;34.20;33.24;156276.06;1699069;82;21127;-61
2022/08/08 09:27:39;;;;;;;;;;;;;;;34.33;32.04;156307.63;1713441;82;20193;-60
2022/08/08 09:30:08;;;;;;;;;;;;;;;34.36;32.04;156315.53;1710412;82;20206;-61
2022/08/08 09:32:39;;;;;;;;;;;;;;;34.38;32.58;156322.13;1706846;82;20861;-61
2022/08/08 09:35:09;;;;;;;;;;;;;;;34.42;32.81;156332.64;1704845;82;20514;-61
2022/08/08 09:37:49;;;;;;;;;;;;;;;34.29;31.97;156299.73;1705264;82;21264;-60
2022/08/08 09:40:19;;;;;;;;;;;;;;;34.13;31.28;156257.61;1666597;83;20249;-61
2022/08/08 09:42:49;;;;;;;;;;;;;;;33.95;31.33;156211.50;1674588;83;20225;-60
2022/08/08 09:45:27;;;;;;;;;;;;;;;33.90;31.76;156199.64;1698549;82;20216;-75
2022/08/08 09:47:54;;;;;;;;;;;;;;;33.90;31.73;156198.34;1646531;84;20213;-74
2022/08/08 09:50:26;;;;;;;;;;;;;;;33.92;31.79;156203.61;1683763;83;21218;-74
2022/08/08 09:52:50;;;;;;;;;;;;;;;33.92;31.40;156204.91;1694711;82;20299;-74
2022/08/08 09:55:18;;;;;;;;;;;;;;;33.94;31.42;156210.22;1700805;82;20218;-74
2022/08/08 09:57:46;;;;;;;;;;;;;;;33.97;31.05;156218.16;1699920;82;20436;-75
2022/08/08 10:00:14;;;;;;;;;;;;;;;33.97;31.30;156216.81;1695397;82;20185;-73
2022/08/08 10:02:42;;;;;;;;;;;;;;;33.97;31.20;156218.16;1694662;82;21203;-73
2022/08/08 10:05:15;;;;;;;;;;;;;;;34.06;31.24;156239.19;1707687;82;20200;-74
2022/08/08 10:07:54;;;;;;;;;;;;;;;34.22;31.35;156279.98;1712658;81;20205;-74
2022/08/08 10:10:28;;;;;;;;;;;;;;;34.35;31.57;156312.89;1709775;81;20228;-75
2022/08/08 10:12:54;;;;;;;;;;;;;;;34.40;30.71;156326.09;1712151;83;20205;-61
2022/08/08 10:15:22;;;;;;;;;;;;;;;34.27;30.78;156294.47;1720179;81;21047;-61
2022/08/08 10:17:51;;;;;;;;;;;;;;;34.16;31.17;156264.20;1711246;82;20261;-60
2022/08/08 10:20:18;;;;;;;;;;;;;;;34.10;31.25;156249.72;1709531;82;20472;-60
2022/08/08 10:22:56;;;;;;;;;;;;;;;34.09;32.22;156247.08;1710189;82;20609;-60
2022/08/08 10:25:23;;;;;;;;;;;;;;;34.15;32.80;156262.86;1713977;82;20179;-60
2022/08/08 10:27:51;;;;;;;;;;;;;;;34.22;32.75;156281.33;1710884;82;22044;-61
2022/08/08 10:30:22;;;;;;;;;;;;;;;34.31;31.37;156303.70;1713005;82;20169;-61
2022/08/08 10:32:51;;;;;;;;;;;;;;;34.38;31.64;156320.83;1712392;82;20194;-60
2022/08/08 10:35:19;;;;;;;;;;;;;;;34.51;30.35;156355.08;1709979;82;20261;-61
2022/08/08 10:37:52;;;;;;;;;;;;;;;34.67;28.76;156394.59;1717424;82;20196;-60
2022/08/08 10:40:19;;;;;;;;;;;;;;;34.63;28.41;156384.06;1714500;80;22842;-61
2022/08/08 10:42:48;;;;;;;;;;;;;;;34.43;30.23;156335.28;1713842;82;20451;-60
2022/08/08 10:45:15;;;;;;;;;;;;;;;34.32;30.64;156306.34;1715072;82;20228;-60
2022/08/08 10:47:42;;;;;;;;;;;;;;;34.27;30.78;156293.19;1715020;82;20880;-60
2022/08/08 10:50:09;;;;;;;;;;;;;;;34.31;31.56;156302.38;1713509;81;20176;-60
2022/08/08 10:52:39;;;;;;;;;;;;;;;34.39;30.82;156323.47;1710180;83;21082;-60
2022/08/08 10:55:12;;;;;;;;;;;;;;;34.47;29.43;156344.50;1713731;83;20474;-61
2022/08/08 10:57:45;;;;;;;;;;;;;;;34.54;28.87;156362.97;1704952;83;20205;-61
2022/08/08 11:00:12;;;;;;;;;;;;;;;34.64;28.65;156386.70;1708274;83;20248;-60
2022/08/08 11:02:40;;;;;;;;;;;;;;;34.69;28.31;156399.86;1707701;83;20156;-75
2022/08/08 11:05:08;;;;;;;;;;;;;;;34.70;28.69;156402.48;1702906;83;22848;-75
2022/08/08 11:07:37;;;;;;;;;;;;;;;34.71;28.85;156405.13;1689595;83;20184;-61
2022/08/08 11:10:09;;;;;;;;;;;;;;;34.61;28.65;156378.81;1698486;83;20441;-61
2022/08/08 11:12:50;;;;;;;;;;;;;;;34.51;29.13;156353.78;1700702;81;20200;-61
2022/08/08 11:15:23;;;;;;;;;;;;;;;34.50;29.15;156352.45;1712767;83;20212;-75
2022/08/08 11:17:51;;;;;;;;;;;;;;;34.55;28.44;156364.31;1708397;83;21793;-61
2022/08/08 11:20:22;;;;;;;;;;;;;;;34.66;28.21;156391.97;1707706;83;20466;-74
2022/08/08 11:22:51;;;;;;;;;;;;;;;34.73;27.24;156409.09;1705438;83;20197;-73
2022/08/08 11:25:20;;;;;;;;;;;;;;;34.81;26.98;156431.42;1714326;82;20398;-74
2022/08/08 11:27:47;;;;;;;;;;;;;;;34.87;26.87;156445.92;1716761;82;20204;-74
2022/08/08 11:30:14;;;;;;;;;;;;;;;34.81;27.26;156431.42;1711384;83;21241;-75
2022/08/08 11:32:41;;;;;;;;;;;;;;;34.70;27.63;156403.78;1702465;81;20242;-73
2022/08/08 11:35:10;;;;;;;;;;;;;;;34.62;27.65;156381.44;1709979;81;20176;-74
2022/08/08 11:37:38;;;;;;;;;;;;;;;34.61;28.22;156378.81;1717919;81;20143;-74
2022/08/08 11:40:08;;;;;;;;;;;;;;;34.71;28.37;156405.13;1711823;81;20224;-61
2022/08/08 11:42:35;;;;;;;;;;;;;;;34.87;28.67;156445.92;1714001;81;21772;-61
2022/08/08 11:45:02;;;;;;;;;;;;;;;34.99;28.78;156476.20;1696988;83;20197;-61
2022/08/08 11:47:28;;;;;;;;;;;;;;;35.02;28.79;156484.16;1709474;81;20164;-60
2022/08/08 11:49:58;;;;;;;;;;;;;;;35.03;28.64;156486.78;1716731;81;20181;-60
2022/08/08 11:52:25;;;;;;;;;;;;;;;34.96;28.93;156468.31;1710295;81;20192;-60
2022/08/08 11:54:51;;;;;;;;;;;;;;;34.86;28.83;156443.30;1716570;81;20540;-59
2022/08/08 11:57:23;;;;;;;;;;;;;;;34.75;29.09;156415.64;1713771;81;21087;-59
2022/08/08 12:00:01;;;;;;;;;;;;;;;34.73;29.02;156409.09;1700641;82;20267;-60
2022/08/08 12:02:30;;;;;;;;;;;;;;;34.77;28.96;156420.91;1701840;82;20435;-75
2022/08/08 12:05:08;;;;;;;;;;;;;;;34.87;28.93;156444.63;1677257;84;20279;-61
2022/08/08 12:07:52;;;;;;;;;;;;;;;35.00;28.31;156478.84;1663484;83;21083;-60
2022/08/08 12:10:20;;;;;;;;;;;;;;;35.03;28.00;156486.78;1679447;83;20137;-75
2022/08/08 12:12:47;;;;;;;;;;;;;;;34.95;28.23;156467.02;1647071;84;20174;-75
2022/08/08 12:15:29;;;;;;;;;;;;;;;34.89;28.50;156451.19;1660375;84;20640;-61
2022/08/08 12:17:56;;;;;;;;;;;;;;;34.79;28.69;156426.16;1654904;84;20175;-60
2022/08/08 12:20:22;;;;;;;;;;;;;;;34.67;29.40;156394.59;1667874;84;21040;-74
2022/08/08 12:22:50;;;;;;;;;;;;;;;34.65;29.51;156390.63;1664294;83;20183;-73
2022/08/08 12:25:25;;;;;;;;;;;;;;;34.69;29.46;156399.86;1691115;83;20210;-74
2022/08/08 12:27:52;;;;;;;;;;;;;;;34.74;29.21;156413.02;1671126;83;20485;-74
2022/08/08 12:30:30;;;;;;;;;;;;;;;34.79;28.84;156426.16;1671044;83;20218;-74
2022/08/08 12:32:58;;;;;;;;;;;;;;;34.82;28.66;156434.11;1700839;81;21874;-74
2022/08/08 12:35:26;;;;;;;;;;;;;;;35.00;28.32;156478.84;1692056;83;20644;-75
2022/08/08 12:38:06;;;;;;;;;;;;;;;35.02;27.60;156484.16;1674853;83;20200;-75
2022/08/08 12:40:46;;;;;;;;;;;;;;;34.89;27.23;156451.19;1670221;83;20175;-75
2022/08/08 12:43:12;;;;;;;;;;;;;;;34.69;27.50;156399.86;1683128;83;20433;-74
2022/08/08 12:45:41;;;;;;;;;;;;;;;34.59;27.82;156373.50;1656022;84;22168;-74
2022/08/08 12:48:21;;;;;;;;;;;;;;;34.62;27.60;156381.44;1676486;84;20584;-75
2022/08/08 12:50:49;;;;;;;;;;;;;;;34.71;27.44;156405.13;1679582;84;20192;-74
2022/08/08 12:53:17;;;;;;;;;;;;;;;34.80;26.86;156428.80;1673226;84;20498;-74
2022/08/08 12:56:08;;;;;;;;;;;;;;;34.88;26.70;156447.27;1678042;83;20217;-74
2022/08/08 12:58:51;;;;;;;;;;;;;;;35.01;26.77;156480.23;1674948;84;21120;-75
2022/08/08 13:01:18;;;;;;;;;;;;;;;35.05;26.29;156492.09;1672622;84;20240;-75
2022/08/08 13:03:46;;;;;;;;;;;;;;;35.00;26.19;156478.84;1676674;84;20218;-74
2022/08/08 13:06:14;;;;;;;;;;;;;;;34.90;25.23;156453.81;1681001;83;20188;-75
2022/08/08 13:08:47;;;;;;;;;;;;;;;34.80;25.57;156428.80;1669876;84;20282;-75
2022/08/08 13:11:20;;;;;;;;;;;;;;;34.78;24.66;156423.53;1675507;83;21151;-75